Fountaintown, Indiana
Current Conditions -  °F | °C
As of 1:53 PM on Friday 21 Nov 2014 (Local Time) from KGEZ Reporting Station
Clear Clear  
Wind Chill: 25°   Ceiling: Unl
Heat Index: 33°   Visibility: 10mi
Dew Point: 12°   Wind: 9mph
Humidity: 42%   Direction: 130°SE
Pressure: 30.45"   Gusts: NA
Location:  39.69°N, 85.78°W
Report Text: KGEZ 211853Z AUTO 13008KT 10SM CLR 01/M11 A3045 RMK AO2 SLP321 T00061111
Loading
Personal Weather Stations






























Interactive Weather Map New forecast layout! Learn more

10-Day Weather Forecast

Advertisements
Track Severe Weather on mobile